sensor_id;sensor_type;location;lat;lon;timestamp;pressure;altitude;pressure_sealevel;temperature;humidity
44481;BME280;30184;42.018;23.670;2023-05-08T00:00:20;91806.75;;;10.64;82.54
44481;BME280;30184;42.018;23.670;2023-05-08T00:02:51;91823.50;;;10.59;82.37
44481;BME280;30184;42.018;23.670;2023-05-08T00:05:21;91832.06;;;10.58;82.45
44481;BME280;30184;42.018;23.670;2023-05-08T00:07:51;91810.97;;;10.65;81.55
44481;BME280;30184;42.018;23.670;2023-05-08T00:10:25;91868.47;;;10.60;81.39
44481;BME280;30184;42.018;23.670;2023-05-08T00:12:55;91757.97;;;10.44;81.08
44481;BME280;30184;42.018;23.670;2023-05-08T00:15:25;91798.78;;;10.73;81.29
44481;BME280;30184;42.018;23.670;2023-05-08T00:17:56;91797.59;;;10.74;81.69
44481;BME280;30184;42.018;23.670;2023-05-08T00:20:26;91803.78;;;10.75;81.90
44481;BME280;30184;42.018;23.670;2023-05-08T00:22:56;91800.31;;;10.74;81.89
44481;BME280;30184;42.018;23.670;2023-05-08T00:25:26;91799.09;;;10.75;80.48
44481;BME280;30184;42.018;23.670;2023-05-08T00:27:55;91676.53;;;9.96;80.34
44481;BME280;30184;42.018;23.670;2023-05-08T00:30:25;91795.94;;;10.77;80.34
44481;BME280;30184;42.018;23.670;2023-05-08T00:32:57;91797.13;;;10.76;81.33
44481;BME280;30184;42.018;23.670;2023-05-08T00:35:26;91749.38;;;10.30;82.28
44481;BME280;30184;42.018;23.670;2023-05-08T00:37:57;91798.78;;;10.73;82.29
44481;BME280;30184;42.018;23.670;2023-05-08T00:40:27;91793.66;;;10.75;82.26
44481;BME280;30184;42.018;23.670;2023-05-08T00:42:56;91796.06;;;10.73;82.99
44481;BME280;30184;42.018;23.670;2023-05-08T00:45:31;91731.09;;;10.34;82.45
44481;BME280;30184;42.018;23.670;2023-05-08T00:48:04;91795.53;;;10.78;81.07
44481;BME280;30184;42.018;23.670;2023-05-08T00:50:35;91809.09;;;10.62;80.10
44481;BME280;30184;42.018;23.670;2023-05-08T00:53:04;91702.03;;;10.18;79.43
44481;BME280;30184;42.018;23.670;2023-05-08T00:55:35;91795.53;;;10.78;79.63
44481;BME280;30184;42.018;23.670;2023-05-08T00:58:05;91631.88;;;9.68;79.62
44481;BME280;30184;42.018;23.670;2023-05-08T01:00:36;91794.78;;;10.78;80.07
44481;BME280;30184;42.018;23.670;2023-05-08T01:03:08;91818.34;;;10.81;80.50
44481;BME280;30184;42.018;23.670;2023-05-08T01:05:39;91853.66;;;10.81;80.37
44481;BME280;30184;42.018;23.670;2023-05-08T01:08:09;91788.16;;;10.79;79.20
44481;BME280;30184;42.018;23.670;2023-05-08T01:10:45;91793.34;;;10.73;79.12
44481;BME280;30184;42.018;23.670;2023-05-08T01:13:22;91795.03;;;10.67;79.47
44481;BME280;30184;42.018;23.670;2023-05-08T01:16:00;91805.63;;;10.62;79.68
44481;BME280;30184;42.018;23.670;2023-05-08T01:18:37;91811.66;;;10.69;79.52
44481;BME280;30184;42.018;23.670;2023-05-08T01:21:13;91792.31;;;10.67;79.53
44481;BME280;30184;42.018;23.670;2023-05-08T01:27:10;91787.41;;;10.62;79.96
44481;BME280;30184;42.018;23.670;2023-05-08T01:30:29;91777.91;;;10.54;80.47
44481;BME280;30184;42.018;23.670;2023-05-08T01:33:13;91776.84;;;10.48;80.73
44481;BME280;30184;42.018;23.670;2023-05-08T01:35:49;91708.66;;;9.97;80.68
44481;BME280;30184;42.018;23.670;2023-05-08T01:38:32;91772.25;;;10.29;80.62
44481;BME280;30184;42.018;23.670;2023-05-08T01:41:08;91788.06;;;10.50;80.66
44481;BME280;30184;42.018;23.670;2023-05-08T01:43:56;91782.97;;;10.52;80.95
44481;BME280;30184;42.018;23.670;2023-05-08T01:46:31;91713.06;;;10.07;81.34
44481;BME280;30184;42.018;23.670;2023-05-08T01:49:06;91783.22;;;10.58;81.60
44481;BME280;30184;42.018;23.670;2023-05-08T01:51:40;91784.69;;;10.62;81.53
44481;BME280;30184;42.018;23.670;2023-05-08T01:54:14;91699.53;;;10.07;81.05
44481;BME280;30184;42.018;23.670;2023-05-08T01:56:45;91756.19;;;10.38;81.21
44481;BME280;30184;42.018;23.670;2023-05-08T01:59:20;91711.63;;;10.03;81.46
44481;BME280;30184;42.018;23.670;2023-05-08T02:01:52;91700.19;;;9.95;81.58
44481;BME280;30184;42.018;23.670;2023-05-08T02:04:26;91770.78;;;10.44;81.99
44481;BME280;30184;42.018;23.670;2023-05-08T02:06:57;91770.34;;;10.45;82.06
44481;BME280;30184;42.018;23.670;2023-05-08T02:09:28;91776.97;;;10.44;82.17
44481;BME280;30184;42.018;23.670;2023-05-08T02:12:00;91771.53;;;10.44;82.14
44481;BME280;30184;42.018;23.670;2023-05-08T02:14:31;91748.13;;;10.34;82.23
44481;BME280;30184;42.018;23.670;2023-05-08T02:17:01;91792.13;;;10.42;82.88
44481;BME280;30184;42.018;23.670;2023-05-08T02:19:35;91767.53;;;10.49;82.27
44481;BME280;30184;42.018;23.670;2023-05-08T02:22:09;91760.59;;;10.48;82.27
44481;BME280;30184;42.018;23.670;2023-05-08T02:24:39;91779.84;;;10.37;82.13
44481;BME280;30184;42.018;23.670;2023-05-08T02:27:10;91754.56;;;10.40;82.33
44481;BME280;30184;42.018;23.670;2023-05-08T02:29:41;91760.84;;;10.37;82.66
44481;BME280;30184;42.018;23.670;2023-05-08T02:32:14;91753.22;;;10.32;83.08
44481;BME280;30184;42.018;23.670;2023-05-08T02:34:48;91764.66;;;10.24;83.54
44481;BME280;30184;42.018;23.670;2023-05-08T02:37:26;91744.75;;;10.10;83.50
44481;BME280;30184;42.018;23.670;2023-05-08T02:39:57;91753.09;;;10.20;83.90
44481;BME280;30184;42.018;23.670;2023-05-08T02:42:27;91758.22;;;10.18;84.16
44481;BME280;30184;42.018;23.670;2023-05-08T02:44:56;91756.25;;;10.18;83.94
44481;BME280;30184;42.018;23.670;2023-05-08T02:47:31;91761.31;;;10.16;84.03
44481;BME280;30184;42.018;23.670;2023-05-08T02:50:10;91748.31;;;10.07;84.24
44481;BME280;30184;42.018;23.670;2023-05-08T02:52:44;91754.88;;;10.10;84.12
44481;BME280;30184;42.018;23.670;2023-05-08T02:55:25;91685.06;;;9.62;84.38
44481;BME280;30184;42.018;23.670;2023-05-08T02:58:04;91755.00;;;10.03;84.88
44481;BME280;30184;42.018;23.670;2023-05-08T03:00:41;91761.94;;;10.04;85.20
44481;BME280;30184;42.018;23.670;2023-05-08T03:03:17;91759.94;;;10.08;85.23
44481;BME280;30184;42.018;23.670;2023-05-08T03:05:51;91789.81;;;10.04;85.83
44481;BME280;30184;42.018;23.670;2023-05-08T03:08:25;91763.25;;;10.16;85.61
44481;BME280;30184;42.018;23.670;2023-05-08T03:10:58;91542.75;;;8.69;85.07
44481;BME280;30184;42.018;23.670;2023-05-08T03:13:31;91755.31;;;10.25;85.20
44481;BME280;30184;42.018;23.670;2023-05-08T03:16:05;91808.44;;;10.22;84.81
44481;BME280;30184;42.018;23.670;2023-05-08T03:18:41;91765.00;;;10.26;84.38
44481;BME280;30184;42.018;23.670;2023-05-08T03:21:17;91769.31;;;10.23;84.24
44481;BME280;30184;42.018;23.670;2023-05-08T03:23:50;91762.34;;;10.22;84.06
44481;BME280;30184;42.018;23.670;2023-05-08T03:26:20;91718.03;;;9.93;84.25
44481;BME280;30184;42.018;23.670;2023-05-08T03:28:51;91770.00;;;10.27;84.27
44481;BME280;30184;42.018;23.670;2023-05-08T03:31:25;91787.81;;;10.28;84.09
44481;BME280;30184;42.018;23.670;2023-05-08T03:33:56;91709.50;;;9.94;83.78
44481;BME280;30184;42.018;23.670;2023-05-08T03:36:29;91733.50;;;10.12;83.71
44481;BME280;30184;42.018;23.670;2023-05-08T03:38:59;91779.75;;;10.41;83.50
44481;BME280;30184;42.018;23.670;2023-05-08T03:41:29;91792.06;;;10.45;83.75
44481;BME280;30184;42.018;23.670;2023-05-08T03:44:01;91773.13;;;10.42;83.09
44481;BME280;30184;42.018;23.670;2023-05-08T03:46:32;91767.88;;;10.51;82.98
44481;BME280;30184;42.018;23.670;2023-05-08T03:49:03;91756.16;;;10.22;83.08
44481;BME280;30184;42.018;23.670;2023-05-08T03:51:37;91761.44;;;10.45;82.82
44481;BME280;30184;42.018;23.670;2023-05-08T03:54:07;91768.28;;;10.66;82.86
44481;BME280;30184;42.018;23.670;2023-05-08T03:56:37;91772.88;;;10.69;82.39
44481;BME280;30184;42.018;23.670;2023-05-08T03:59:13;91773.47;;;10.76;82.03
44481;BME280;30184;42.018;23.670;2023-05-08T04:01:49;91768.38;;;10.78;81.73
44481;BME280;30184;42.018;23.670;2023-05-08T04:04:29;91780.44;;;10.77;81.39
44481;BME280;30184;42.018;23.670;2023-05-08T04:07:07;91785.19;;;10.73;81.44
44481;BME280;30184;42.018;23.670;2023-05-08T04:09:51;91774.94;;;10.81;81.58
44481;BME280;30184;42.018;23.670;2023-05-08T04:12:32;91783.66;;;10.89;81.62
44481;BME280;30184;42.018;23.670;2023-05-08T04:15:08;91785.00;;;10.97;81.07
44481;BME280;30184;42.018;23.670;2023-05-08T04:17:41;91773.94;;;11.04;81.00
44481;BME280;30184;42.018;23.670;2023-05-08T04:20:16;91770.53;;;11.16;80.95
44481;BME280;30184;42.018;23.670;2023-05-08T04:22:52;91768.22;;;11.31;80.78
44481;BME280;30184;42.018;23.670;2023-05-08T04:25:24;91767.09;;;11.44;80.32
44481;BME280;30184;42.018;23.670;2023-05-08T04:27:54;91766.38;;;11.56;79.75
44481;BME280;30184;42.018;23.670;2023-05-08T04:30:26;91773.56;;;11.63;79.38
44481;BME280;30184;42.018;23.670;2023-05-08T04:32:57;91775.16;;;11.77;79.11
44481;BME280;30184;42.018;23.670;2023-05-08T04:35:28;91776.16;;;11.95;78.43
44481;BME280;30184;42.018;23.670;2023-05-08T04:38:00;91769.56;;;12.34;77.47
44481;BME280;30184;42.018;23.670;2023-05-08T04:40:30;91792.38;;;13.00;75.36
44481;BME280;30184;42.018;23.670;2023-05-08T04:43:00;91761.16;;;13.61;72.00
44481;BME280;30184;42.018;23.670;2023-05-08T04:45:31;91767.06;;;13.81;70.32
44481;BME280;30184;42.018;23.670;2023-05-08T04:48:01;91766.75;;;13.79;70.10
44481;BME280;30184;42.018;23.670;2023-05-08T04:50:31;91740.13;;;13.27;70.52
44481;BME280;30184;42.018;23.670;2023-05-08T04:53:03;91764.78;;;13.58;70.88
44481;BME280;30184;42.018;23.670;2023-05-08T04:55:32;91798.03;;;13.53;71.15
44481;BME280;30184;42.018;23.670;2023-05-08T04:58:03;91715.53;;;13.18;71.38
44481;BME280;30184;42.018;23.670;2023-05-08T05:00:33;91756.34;;;13.43;71.74
44481;BME280;30184;42.018;23.670;2023-05-08T05:03:03;91759.50;;;13.42;71.75
44481;BME280;30184;42.018;23.670;2023-05-08T05:05:34;91759.19;;;13.40;71.20
44481;BME280;30184;42.018;23.670;2023-05-08T05:08:07;91755.69;;;13.39;70.97
44481;BME280;30184;42.018;23.670;2023-05-08T05:10:38;91768.66;;;13.35;71.58
44481;BME280;30184;42.018;23.670;2023-05-08T05:13:09;91760.38;;;13.39;72.25
44481;BME280;30184;42.018;23.670;2023-05-08T05:15:41;91759.09;;;13.31;73.37
44481;BME280;30184;42.018;23.670;2023-05-08T05:18:11;91763.53;;;13.37;73.47
44481;BME280;30184;42.018;23.670;2023-05-08T05:20:41;91762.34;;;13.38;73.13
44481;BME280;30184;42.018;23.670;2023-05-08T05:23:12;91771.16;;;13.42;73.11
44481;BME280;30184;42.018;23.670;2023-05-08T05:25:41;91713.25;;;13.17;72.63
44481;BME280;30184;42.018;23.670;2023-05-08T05:28:12;91762.31;;;13.51;72.30
44481;BME280;30184;42.018;23.670;2023-05-08T05:30:42;91765.78;;;13.52;72.21
44481;BME280;30184;42.018;23.670;2023-05-08T05:33:15;91791.38;;;13.54;71.66
44481;BME280;30184;42.018;23.670;2023-05-08T05:35:45;91654.56;;;12.68;71.60
44481;BME280;30184;42.018;23.670;2023-05-08T05:38:17;91765.88;;;13.61;71.32
44481;BME280;30184;42.018;23.670;2023-05-08T05:40:47;91769.09;;;13.68;70.67
44481;BME280;30184;42.018;23.670;2023-05-08T05:43:16;91612.72;;;12.41;70.91
44481;BME280;30184;42.018;23.670;2023-05-08T05:45:46;91761.41;;;13.76;70.59
44481;BME280;30184;42.018;23.670;2023-05-08T05:48:16;91758.09;;;13.81;70.29
44481;BME280;30184;42.018;23.670;2023-05-08T05:50:46;91746.00;;;13.82;70.05
44481;BME280;30184;42.018;23.670;2023-05-08T05:53:17;91753.03;;;13.92;70.50
44481;BME280;30184;42.018;23.670;2023-05-08T05:55:47;91697.38;;;13.59;70.49
44481;BME280;30184;42.018;23.670;2023-05-08T05:58:17;91711.44;;;13.57;69.32
44481;BME280;30184;42.018;23.670;2023-05-08T06:00:48;91759.50;;;14.07;70.74
44481;BME280;30184;42.018;23.670;2023-05-08T06:03:18;91746.69;;;14.17;69.88
44481;BME280;30184;42.018;23.670;2023-05-08T06:05:48;91773.69;;;14.24;69.25
44481;BME280;30184;42.018;23.670;2023-05-08T06:08:19;91748.84;;;14.31;68.74
44481;BME280;30184;42.018;23.670;2023-05-08T06:10:49;91696.38;;;13.96;69.00
44481;BME280;30184;42.018;23.670;2023-05-08T06:13:19;91748.16;;;14.40;69.18
44481;BME280;30184;42.018;23.670;2023-05-08T06:15:50;91721.50;;;14.22;69.20
44481;BME280;30184;42.018;23.670;2023-05-08T06:18:19;91738.97;;;14.55;68.05
44481;BME280;30184;42.018;23.670;2023-05-08T06:20:55;91743.25;;;14.66;67.44
44481;BME280;30184;42.018;23.670;2023-05-08T06:23:26;91742.38;;;14.78;67.17
44481;BME280;30184;42.018;23.670;2023-05-08T06:25:57;91719.75;;;14.77;66.39
44481;BME280;30184;42.018;23.670;2023-05-08T06:28:27;91739.41;;;15.03;66.34
44481;BME280;30184;42.018;23.670;2023-05-08T06:30:56;91739.41;;;15.12;65.70
44481;BME280;30184;42.018;23.670;2023-05-08T06:33:26;91733.81;;;15.25;65.49
44481;BME280;30184;42.018;23.670;2023-05-08T06:35:57;91756.00;;;15.36;65.27
44481;BME280;30184;42.018;23.670;2023-05-08T06:38:28;91727.78;;;15.57;65.02
44481;BME280;30184;42.018;23.670;2023-05-08T06:40:57;91724.59;;;15.68;64.11
44481;BME280;30184;42.018;23.670;2023-05-08T06:43:27;91672.03;;;15.55;64.19
44481;BME280;30184;42.018;23.670;2023-05-08T06:45:57;91731.97;;;16.04;63.81
44481;BME280;30184;42.018;23.670;2023-05-08T06:48:27;91726.31;;;16.26;63.00
44481;BME280;30184;42.018;23.670;2023-05-08T06:50:57;91719.69;;;16.41;62.34
44481;BME280;30184;42.018;23.670;2023-05-08T06:53:28;91704.31;;;16.11;61.12
44481;BME280;30184;42.018;23.670;2023-05-08T06:55:58;91705.56;;;16.43;61.11
44481;BME280;30184;42.018;23.670;2023-05-08T06:58:28;91714.91;;;16.69;61.55
44481;BME280;30184;42.018;23.670;2023-05-08T07:00:59;91706.88;;;16.90;60.65
44481;BME280;30184;42.018;23.670;2023-05-08T07:03:28;91705.09;;;17.10;60.25
44481;BME280;30184;42.018;23.670;2023-05-08T07:05:57;91704.59;;;17.36;60.35
44481;BME280;30184;42.018;23.670;2023-05-08T07:08:26;91706.91;;;17.52;59.49
44481;BME280;30184;42.018;23.670;2023-05-08T07:10:58;91700.00;;;17.66;58.53
44481;BME280;30184;42.018;23.670;2023-05-08T07:13:27;91704.34;;;17.72;58.12
44481;BME280;30184;42.018;23.670;2023-05-08T07:15:56;91707.22;;;17.78;58.30
44481;BME280;30184;42.018;23.670;2023-05-08T07:18:25;91705.03;;;17.82;58.12
44481;BME280;30184;42.018;23.670;2023-05-08T07:20:55;91708.06;;;17.84;57.76
44481;BME280;30184;42.018;23.670;2023-05-08T07:23:24;91700.59;;;17.99;57.47
44481;BME280;30184;42.018;23.670;2023-05-08T07:25:54;91496.97;;;16.59;58.16
44481;BME280;30184;42.018;23.670;2023-05-08T07:28:25;91689.06;;;18.24;58.19
44481;BME280;30184;42.018;23.670;2023-05-08T07:30:54;91685.53;;;18.39;58.30
44481;BME280;30184;42.018;23.670;2023-05-08T07:33:24;91535.88;;;17.40;56.86
44481;BME280;30184;42.018;23.670;2023-05-08T07:35:53;91691.00;;;18.68;56.13
44481;BME280;30184;42.018;23.670;2023-05-08T07:38:22;91665.13;;;18.45;55.22
44481;BME280;30184;42.018;23.670;2023-05-08T07:40:51;91683.34;;;18.92;55.01
44481;BME280;30184;42.018;23.670;2023-05-08T07:43:25;91685.56;;;18.88;55.15
44481;BME280;30184;42.018;23.670;2023-05-08T07:45:54;91685.28;;;18.86;56.30
44481;BME280;30184;42.018;23.670;2023-05-08T07:48:23;91477.41;;;17.49;55.04
44481;BME280;30184;42.018;23.670;2023-05-08T07:50:53;91674.31;;;19.07;54.81
44481;BME280;30184;42.018;23.670;2023-05-08T07:53:23;91677.41;;;19.14;54.58
44481;BME280;30184;42.018;23.670;2023-05-08T07:55:52;91675.69;;;19.17;54.46
44481;BME280;30184;42.018;23.670;2023-05-08T07:58:21;91676.56;;;19.28;54.10
44481;BME280;30184;42.018;23.670;2023-05-08T08:00:52;91676.38;;;19.32;53.98
44481;BME280;30184;42.018;23.670;2023-05-08T08:03:21;91670.72;;;19.41;54.96
44481;BME280;30184;42.018;23.670;2023-05-08T08:05:51;91638.25;;;18.84;53.26
44481;BME280;30184;42.018;23.670;2023-05-08T08:08:20;91681.16;;;19.52;52.96
44481;BME280;30184;42.018;23.670;2023-05-08T08:10:49;91410.69;;;17.58;52.96
44481;BME280;30184;42.018;23.670;2023-05-08T08:13:19;91660.47;;;19.82;52.74
44481;BME280;30184;42.018;23.670;2023-05-08T08:15:49;91648.88;;;20.04;52.29
44481;BME280;30184;42.018;23.670;2023-05-08T08:18:20;91652.31;;;20.19;50.57
44481;BME280;30184;42.018;23.670;2023-05-08T08:20:49;91640.81;;;20.52;49.88
44481;BME280;30184;42.018;23.670;2023-05-08T08:23:18;91634.16;;;20.70;49.80
44481;BME280;30184;42.018;23.670;2023-05-08T08:25:48;91630.22;;;20.82;49.47
44481;BME280;30184;42.018;23.670;2023-05-08T08:28:17;91617.72;;;20.86;48.81
44481;BME280;30184;42.018;23.670;2023-05-08T08:30:46;91620.25;;;20.96;49.40
44481;BME280;30184;42.018;23.670;2023-05-08T08:33:15;91616.75;;;20.95;49.03
44481;BME280;30184;42.018;23.670;2023-05-08T08:35:47;91606.78;;;21.03;48.66
44481;BME280;30184;42.018;23.670;2023-05-08T08:38:16;91612.34;;;21.14;47.89
44481;BME280;30184;42.018;23.670;2023-05-08T08:40:45;91611.91;;;21.21;47.45
44481;BME280;30184;42.018;23.670;2023-05-08T08:43:14;91603.16;;;21.29;47.71
44481;BME280;30184;42.018;23.670;2023-05-08T08:45:44;91576.19;;;21.07;48.12
44481;BME280;30184;42.018;23.670;2023-05-08T08:48:13;91593.56;;;21.18;46.84
44481;BME280;30184;42.018;23.670;2023-05-08T08:50:47;91594.78;;;21.12;47.43
44481;BME280;30184;42.018;23.670;2023-05-08T08:53:25;91577.88;;;20.93;46.75
44481;BME280;30184;42.018;23.670;2023-05-08T08:55:57;91554.78;;;20.85;47.16
44481;BME280;30184;42.018;23.670;2023-05-08T08:58:31;91549.22;;;20.79;47.52
44481;BME280;30184;42.018;23.670;2023-05-08T09:01:04;91581.78;;;21.18;48.10
44481;BME280;30184;42.018;23.670;2023-05-08T09:03:35;91586.06;;;21.25;47.18
44481;BME280;30184;42.018;23.670;2023-05-08T09:06:07;91581.06;;;21.29;46.55
44481;BME280;30184;42.018;23.670;2023-05-08T09:08:36;91574.53;;;21.32;46.53
44481;BME280;30184;42.018;23.670;2023-05-08T09:11:06;91572.31;;;21.41;47.23
44481;BME280;30184;42.018;23.670;2023-05-08T09:13:35;91570.59;;;21.55;46.50
44481;BME280;30184;42.018;23.670;2023-05-08T09:16:05;91558.56;;;21.58;46.27
44481;BME280;30184;42.018;23.670;2023-05-08T09:18:35;91556.81;;;21.66;47.02
44481;BME280;30184;42.018;23.670;2023-05-08T09:21:06;91555.31;;;21.71;46.44
44481;BME280;30184;42.018;23.670;2023-05-08T09:23:35;91557.34;;;21.81;46.29
44481;BME280;30184;42.018;23.670;2023-05-08T09:26:04;91339.31;;;20.44;45.54
44481;BME280;30184;42.018;23.670;2023-05-08T09:28:33;91545.56;;;21.92;46.52
44481;BME280;30184;42.018;23.670;2023-05-08T09:31:03;91541.78;;;21.95;46.30
44481;BME280;30184;42.018;23.670;2023-05-08T09:33:42;91533.97;;;21.88;44.77
44481;BME280;30184;42.018;23.670;2023-05-08T09:36:24;91532.25;;;21.96;44.40
44481;BME280;30184;42.018;23.670;2023-05-08T09:38:55;91454.88;;;21.40;43.69
44481;BME280;30184;42.018;23.670;2023-05-08T09:41:24;91536.00;;;21.93;44.45
44481;BME280;30184;42.018;23.670;2023-05-08T09:44:01;91525.97;;;21.95;44.86
44481;BME280;30184;42.018;23.670;2023-05-08T09:46:31;91528.22;;;21.80;45.28
44481;BME280;30184;42.018;23.670;2023-05-08T09:49:02;91493.56;;;21.90;44.57
44481;BME280;30184;42.018;23.670;2023-05-08T09:51:33;91509.13;;;22.38;44.14
44481;BME280;30184;42.018;23.670;2023-05-08T09:54:02;91503.28;;;22.69;45.96
44481;BME280;30184;42.018;23.670;2023-05-08T09:56:35;91450.47;;;22.67;43.96
44481;BME280;30184;42.018;23.670;2023-05-08T09:59:21;91501.06;;;23.26;40.68
44481;BME280;30184;42.018;23.670;2023-05-08T10:01:51;91488.56;;;23.55;39.59
44481;BME280;30184;42.018;23.670;2023-05-08T10:04:33;91459.50;;;23.31;38.94
44481;BME280;30184;42.018;23.670;2023-05-08T10:07:03;91483.09;;;23.38;38.98
44481;BME280;30184;42.018;23.670;2023-05-08T10:09:32;91480.31;;;23.49;38.25
44481;BME280;30184;42.018;23.670;2023-05-08T10:12:09;91478.63;;;23.29;37.61
44481;BME280;30184;42.018;23.670;2023-05-08T10:14:38;91488.31;;;23.06;36.46
44481;BME280;30184;42.018;23.670;2023-05-08T10:17:09;91485.66;;;22.73;37.74
44481;BME280;30184;42.018;23.670;2023-05-08T10:19:41;91474.97;;;22.30;39.44
44481;BME280;30184;42.018;23.670;2023-05-08T10:22:17;91506.38;;;22.27;39.48
44481;BME280;30184;42.018;23.670;2023-05-08T10:24:48;91496.88;;;22.06;41.64
44481;BME280;30184;42.018;23.670;2023-05-08T10:27:29;91492.56;;;21.66;47.49
44481;BME280;30184;42.018;23.670;2023-05-08T10:30:01;91502.56;;;21.46;48.90
44481;BME280;30184;42.018;23.670;2023-05-08T10:32:37;91506.28;;;21.27;52.86
44481;BME280;30184;42.018;23.670;2023-05-08T10:35:10;91524.56;;;21.13;57.00
44481;BME280;30184;42.018;23.670;2023-05-08T10:37:41;91501.03;;;20.64;61.41
44481;BME280;30184;42.018;23.670;2023-05-08T10:40:12;91538.06;;;20.52;63.26
44481;BME280;30184;42.018;23.670;2023-05-08T10:42:43;91519.78;;;20.17;65.64
44481;BME280;30184;42.018;23.670;2023-05-08T10:45:13;91539.47;;;19.73;65.92
44481;BME280;30184;42.018;23.670;2023-05-08T10:47:53;91488.44;;;19.00;66.73
44481;BME280;30184;42.018;23.670;2023-05-08T10:50:33;91356.28;;;17.71;69.06
44481;BME280;30184;42.018;23.670;2023-05-08T10:53:12;91492.81;;;18.25;70.13
44481;BME280;30184;42.018;23.670;2023-05-08T10:55:54;91533.78;;;18.29;71.34
44481;BME280;30184;42.018;23.670;2023-05-08T10:58:31;91558.94;;;18.07;72.93
44481;BME280;30184;42.018;23.670;2023-05-08T11:01:18;91568.25;;;17.66;75.10
44481;BME280;30184;42.018;23.670;2023-05-08T11:03:48;91550.34;;;17.26;76.55
44481;BME280;30184;42.018;23.670;2023-05-08T11:06:43;91570.06;;;17.15;76.71
44481;BME280;30184;42.018;23.670;2023-05-08T11:09:30;91524.16;;;16.72;77.03
44481;BME280;30184;42.018;23.670;2023-05-08T11:12:19;91397.13;;;15.59;77.07
44481;BME280;30184;42.018;23.670;2023-05-08T11:14:56;91596.50;;;16.89;77.08
44481;BME280;30184;42.018;23.670;2023-05-08T11:17:28;91588.56;;;16.91;77.77
44481;BME280;30184;42.018;23.670;2023-05-08T11:19:59;91595.38;;;16.96;79.22
44481;BME280;30184;42.018;23.670;2023-05-08T11:22:30;91623.09;;;16.74;79.39
44481;BME280;30184;42.018;23.670;2023-05-08T11:25:03;91595.22;;;16.75;79.52
44481;BME280;30184;42.018;23.670;2023-05-08T11:27:38;91585.44;;;16.84;79.78
44481;BME280;30184;42.018;23.670;2023-05-08T11:30:33;91578.88;;;16.81;80.45
44481;BME280;30184;42.018;23.670;2023-05-08T11:33:29;91588.16;;;16.84;80.46
44481;BME280;30184;42.018;23.670;2023-05-08T11:36:00;91587.44;;;16.98;80.00
44481;BME280;30184;42.018;23.670;2023-05-08T11:38:40;91600.81;;;17.05;79.18
44481;BME280;30184;42.018;23.670;2023-05-08T11:41:19;91572.44;;;17.08;80.61
44481;BME280;30184;42.018;23.670;2023-05-08T11:44:22;91537.38;;;17.12;79.27
44481;BME280;30184;42.018;23.670;2023-05-08T11:46:53;91568.31;;;17.57;78.11
44481;BME280;30184;42.018;23.670;2023-05-08T11:49:24;91553.50;;;17.78;74.91
44481;BME280;30184;42.018;23.670;2023-05-08T11:51:57;91543.06;;;17.82;74.05
44481;BME280;30184;42.018;23.670;2023-05-08T11:54:29;91533.56;;;18.12;73.56
44481;BME280;30184;42.018;23.670;2023-05-08T11:56:59;91553.41;;;18.22;71.02
44481;BME280;30184;42.018;23.670;2023-05-08T11:59:34;91542.72;;;18.44;71.90
44481;BME280;30184;42.018;23.670;2023-05-08T12:02:03;91536.78;;;18.66;69.12
44481;BME280;30184;42.018;23.670;2023-05-08T12:04:42;91564.84;;;18.70;68.39
44481;BME280;30184;42.018;23.670;2023-05-08T12:07:12;91532.69;;;18.76;67.31
44481;BME280;30184;42.018;23.670;2023-05-08T12:09:42;91519.53;;;18.86;67.62
44481;BME280;30184;42.018;23.670;2023-05-08T12:12:15;91528.88;;;19.14;66.62
44481;BME280;30184;42.018;23.670;2023-05-08T12:14:48;91524.75;;;19.30;64.63
44481;BME280;30184;42.018;23.670;2023-05-08T12:17:20;91523.22;;;19.49;65.63
44481;BME280;30184;42.018;23.670;2023-05-08T12:19:53;91518.09;;;19.62;64.61
44481;BME280;30184;42.018;23.670;2023-05-08T12:22:23;91510.91;;;19.70;64.68
44481;BME280;30184;42.018;23.670;2023-05-08T12:24:52;91510.25;;;19.81;63.95
44481;BME280;30184;42.018;23.670;2023-05-08T12:27:32;91502.47;;;19.80;63.19
44481;BME280;30184;42.018;23.670;2023-05-08T12:30:05;91545.09;;;19.58;64.85
44481;BME280;30184;42.018;23.670;2023-05-08T12:32:36;91500.06;;;19.61;66.34
44481;BME280;30184;42.018;23.670;2023-05-08T12:35:11;91502.56;;;19.59;66.52
44481;BME280;30184;42.018;23.670;2023-05-08T12:37:40;91453.88;;;19.19;65.79
44481;BME280;30184;42.018;23.670;2023-05-08T12:40:24;91489.16;;;19.72;65.81
44481;BME280;30184;42.018;23.670;2023-05-08T12:42:55;91352.72;;;19.03;62.95
44481;BME280;30184;42.018;23.670;2023-05-08T12:45:26;91433.84;;;19.70;61.07
44481;BME280;30184;42.018;23.670;2023-05-08T12:47:59;91453.50;;;19.95;61.25
44481;BME280;30184;42.018;23.670;2023-05-08T12:50:34;91386.59;;;19.46;62.83
44481;BME280;30184;42.018;23.670;2023-05-08T12:53:04;91479.47;;;20.20;60.77
44481;BME280;30184;42.018;23.670;2023-05-08T12:55:35;91399.28;;;19.69;60.16
44481;BME280;30184;42.018;23.670;2023-05-08T12:58:09;91538.91;;;20.32;57.90
44481;BME280;30184;42.018;23.670;2023-05-08T13:00:43;91458.38;;;20.54;54.96
44481;BME280;30184;42.018;23.670;2023-05-08T13:03:21;91422.75;;;20.44;55.82
44481;BME280;30184;42.018;23.670;2023-05-08T13:05:52;91447.47;;;20.87;52.83
44481;BME280;30184;42.018;23.670;2023-05-08T13:08:28;91454.56;;;21.10;54.84
44481;BME280;30184;42.018;23.670;2023-05-08T13:10:58;91446.31;;;21.21;48.07
44481;BME280;30184;42.018;23.670;2023-05-08T13:13:30;91428.44;;;21.06;48.61
44481;BME280;30184;42.018;23.670;2023-05-08T13:16:01;91437.31;;;21.38;46.74
44481;BME280;30184;42.018;23.670;2023-05-08T13:18:32;91302.25;;;20.56;45.66
44481;BME280;30184;42.018;23.670;2023-05-08T13:21:03;91429.53;;;21.64;45.48